Time;durP1;ratioP1;P1;durP2;ratioP2;P2;SDS_P1;SDS_P2;PMS_P1;PMS_P2;Temp;Humidity;BMP_temperature;BMP_pressure;BME280_temperature;BME280_humidity;BME280_pressure;Samples;Min_cycle;Max_cycle;Signal;HPM_P1;HPM_P2
2023/08/10 00:02:14;;;;;;;0.10;0.10;;;;;;;;;;5052868;28;20021;-81
2023/08/10 00:04:40;;;;;;;0.20;0.20;;;;;;;;;;5052506;28;20029;-80
2023/08/10 00:07:06;;;;;;;0.10;0.10;;;;;;;;;;5052264;28;20085;-80
2023/08/10 00:09:32;;;;;;;0.10;0.10;;;;;;;;;;5051261;28;20108;-81
2023/08/10 00:11:58;;;;;;;0.90;0.40;;;;;;;;;;5052165;28;20025;-80
2023/08/10 00:14:24;;;;;;;0.28;0.28;;;;;;;;;;5052485;28;20024;-81
2023/08/10 00:16:50;;;;;;;0.10;0.10;;;;;;;;;;5052680;28;20389;-80
2023/08/10 00:19:16;;;;;;;0.10;0.10;;;;;;;;;;5052234;28;20033;-80
2023/08/10 00:21:42;;;;;;;0.10;0.10;;;;;;;;;;5052125;28;20045;-83
2023/08/10 00:24:08;;;;;;;0.10;0.10;;;;;;;;;;5052330;28;20115;-83
2023/08/10 00:26:34;;;;;;;0.10;0.10;;;;;;;;;;5052315;28;20035;-83
2023/08/10 00:29:00;;;;;;;0.10;0.10;;;;;;;;;;5052388;28;20421;-83
2023/08/10 00:31:27;;;;;;;0.00;0.00;;;;;;;;;;5052239;28;20025;-82
2023/08/10 00:33:53;;;;;;;0.00;0.00;;;;;;;;;;5052587;28;20104;-82
2023/08/10 00:36:19;;;;;;;0.00;0.00;;;;;;;;;;5052238;28;20025;-82
2023/08/10 00:38:46;;;;;;;0.70;0.30;;;;;;;;;;5052183;28;20043;-80
2023/08/10 00:41:12;;;;;;;0.15;0.15;;;;;;;;;;5051615;28;20524;-83
2023/08/10 00:43:38;;;;;;;0.10;0.10;;;;;;;;;;5052606;28;20434;-82
2023/08/10 00:46:06;;;;;;;0.10;0.10;;;;;;;;;;5051558;28;20643;-82
2023/08/10 00:48:32;;;;;;;0.20;0.20;;;;;;;;;;5051925;28;20017;-82
2023/08/10 00:50:58;;;;;;;0.10;0.10;;;;;;;;;;5052089;28;20048;-83
2023/08/10 00:53:25;;;;;;;0.10;0.10;;;;;;;;;;5051943;28;20520;-83
2023/08/10 00:55:51;;;;;;;0.10;0.10;;;;;;;;;;5050716;28;20079;-82
2023/08/10 00:58:21;;;;;;;0.20;0.20;;;;;;;;;;5051803;28;20040;-83
2023/08/10 01:00:47;;;;;;;0.10;0.10;;;;;;;;;;5051851;28;20044;-83
2023/08/10 01:03:14;;;;;;;0.20;0.20;;;;;;;;;;5052258;28;20029;-83
2023/08/10 01:05:44;;;;;;;0.22;0.22;;;;;;;;;;5051803;28;20386;-83
2023/08/10 01:08:13;;;;;;;0.10;0.10;;;;;;;;;;5052245;28;20094;-82
2023/08/10 01:10:52;;;;;;;0.10;0.10;;;;;;;;;;5051711;28;20075;-82
2023/08/10 01:13:33;;;;;;;0.13;0.13;;;;;;;;;;5051945;28;20474;-82
2023/08/10 01:16:02;;;;;;;0.10;0.10;;;;;;;;;;5051767;28;20028;-82
2023/08/10 01:18:29;;;;;;;0.00;0.00;;;;;;;;;;5052085;28;20493;-83
2023/08/10 01:20:55;;;;;;;0.35;0.15;;;;;;;;;;5051591;28;20059;-82
2023/08/10 01:23:31;;;;;;;0.20;0.20;;;;;;;;;;5051701;28;20512;-83
2023/08/10 01:25:57;;;;;;;0.10;0.10;;;;;;;;;;5051864;28;20029;-82
2023/08/10 01:28:24;;;;;;;0.10;0.10;;;;;;;;;;5051641;28;20032;-82
2023/08/10 01:30:50;;;;;;;0.10;0.10;;;;;;;;;;5051678;28;20465;-82
2023/08/10 01:33:16;;;;;;;0.10;0.10;;;;;;;;;;5051639;28;20021;-82
2023/08/10 01:35:42;;;;;;;0.30;0.30;;;;;;;;;;5051735;28;20044;-83
2023/08/10 01:38:09;;;;;;;0.10;0.10;;;;;;;;;;5051578;28;20035;-83
2023/08/10 01:40:35;;;;;;;0.22;0.22;;;;;;;;;;5051303;28;20064;-82
2023/08/10 01:43:02;;;;;;;0.20;0.10;;;;;;;;;;5051809;28;20108;-82
2023/08/10 01:45:28;;;;;;;0.25;0.10;;;;;;;;;;5051446;28;20086;-82
2023/08/10 01:47:54;;;;;;;0.10;0.10;;;;;;;;;;5051612;28;20025;-83
2023/08/10 01:50:22;;;;;;;0.10;0.10;;;;;;;;;;5051562;28;20158;-82
2023/08/10 01:52:53;;;;;;;1.13;0.20;;;;;;;;;;5051827;28;20032;-82
2023/08/10 01:55:20;;;;;;;0.10;0.10;;;;;;;;;;5051122;28;20124;-82
2023/08/10 01:57:47;;;;;;;0.20;0.20;;;;;;;;;;5053119;28;20075;-82
2023/08/10 02:00:13;;;;;;;0.10;0.10;;;;;;;;;;5054951;28;20029;-82
2023/08/10 02:02:39;;;;;;;0.10;0.10;;;;;;;;;;5055494;28;20017;-82
2023/08/10 02:05:07;;;;;;;0.22;0.22;;;;;;;;;;5054734;28;20462;-83
2023/08/10 02:07:33;;;;;;;0.00;0.00;;;;;;;;;;5055099;28;20028;-82
2023/08/10 02:09:59;;;;;;;0.10;0.10;;;;;;;;;;5054595;28;20037;-83
2023/08/10 02:12:25;;;;;;;0.00;0.00;;;;;;;;;;5055355;28;20512;-83
2023/08/10 02:14:51;;;;;;;0.00;0.00;;;;;;;;;;5054701;28;20037;-83
2023/08/10 02:17:17;;;;;;;0.10;0.10;;;;;;;;;;5054545;28;20047;-82
2023/08/10 02:19:43;;;;;;;0.10;0.10;;;;;;;;;;5054664;28;20029;-82
2023/08/10 02:22:09;;;;;;;0.20;0.20;;;;;;;;;;5054535;28;20103;-82
2023/08/10 02:24:36;;;;;;;0.05;0.05;;;;;;;;;;5054644;28;20025;-82
2023/08/10 02:27:02;;;;;;;0.10;0.10;;;;;;;;;;5054558;28;20017;-82
2023/08/10 02:29:28;;;;;;;0.20;0.20;;;;;;;;;;5054375;28;20509;-82
2023/08/10 02:31:54;;;;;;;0.13;0.13;;;;;;;;;;5054819;28;20096;-82
2023/08/10 02:34:20;;;;;;;0.10;0.10;;;;;;;;;;5054590;28;20057;-82
2023/08/10 02:36:46;;;;;;;0.17;0.17;;;;;;;;;;5054238;28;20068;-82
2023/08/10 02:39:13;;;;;;;0.10;0.10;;;;;;;;;;5053962;28;20037;-82
2023/08/10 02:41:39;;;;;;;0.17;0.17;;;;;;;;;;5054426;28;20078;-82
2023/08/10 02:44:05;;;;;;;0.10;0.10;;;;;;;;;;5054057;28;20037;-82
2023/08/10 02:46:32;;;;;;;0.10;0.10;;;;;;;;;;5054110;28;20025;-82
2023/08/10 02:48:58;;;;;;;0.10;0.10;;;;;;;;;;5054170;28;20033;-82
2023/08/10 02:51:24;;;;;;;0.10;0.10;;;;;;;;;;5053687;28;20024;-82
2023/08/10 02:53:51;;;;;;;0.22;0.22;;;;;;;;;;5054451;28;20386;-82
2023/08/10 02:56:17;;;;;;;0.10;0.10;;;;;;;;;;5054065;28;20036;-82
2023/08/10 02:58:43;;;;;;;0.10;0.10;;;;;;;;;;5053878;28;20037;-83
2023/08/10 03:01:09;;;;;;;1.15;0.45;;;;;;;;;;5053886;28;20029;-82
2023/08/10 03:03:35;;;;;;;0.13;0.13;;;;;;;;;;5054234;28;20021;-82
2023/08/10 03:06:01;;;;;;;0.10;0.10;;;;;;;;;;5053563;28;20420;-82
2023/08/10 03:08:27;;;;;;;0.10;0.10;;;;;;;;;;5053762;28;20435;-82
2023/08/10 03:10:54;;;;;;;0.10;0.10;;;;;;;;;;5053532;28;20033;-82
2023/08/10 03:13:20;;;;;;;0.10;0.10;;;;;;;;;;5053666;28;20075;-83
2023/08/10 03:15:46;;;;;;;1.70;0.68;;;;;;;;;;5053584;28;20033;-83
2023/08/10 03:18:12;;;;;;;0.20;0.20;;;;;;;;;;5053557;28;20040;-82
2023/08/10 03:20:38;;;;;;;0.20;0.20;;;;;;;;;;5053209;28;20398;-82
2023/08/10 03:23:04;;;;;;;0.22;0.22;;;;;;;;;;5053528;28;20029;-82
2023/08/10 03:25:32;;;;;;;0.75;0.25;;;;;;;;;;5033713;28;20163;-82
2023/08/10 03:27:58;;;;;;;0.10;0.10;;;;;;;;;;5033669;28;20045;-82
2023/08/10 03:30:24;;;;;;;0.52;0.52;;;;;;;;;;5033511;28;20075;-82
2023/08/10 03:32:50;;;;;;;0.30;0.30;;;;;;;;;;5033428;28;20460;-82
2023/08/10 03:35:16;;;;;;;0.10;0.10;;;;;;;;;;5033032;28;20176;-82
2023/08/10 03:37:42;;;;;;;0.10;0.10;;;;;;;;;;5033358;28;20033;-82
2023/08/10 03:40:08;;;;;;;0.10;0.10;;;;;;;;;;5033273;28;20466;-82
2023/08/10 03:42:34;;;;;;;0.10;0.10;;;;;;;;;;5033712;28;20021;-82
2023/08/10 03:45:00;;;;;;;0.10;0.10;;;;;;;;;;5033421;28;20032;-82
2023/08/10 03:47:26;;;;;;;0.10;0.10;;;;;;;;;;5033095;28;20095;-82
2023/08/10 03:49:52;;;;;;;0.13;0.13;;;;;;;;;;5032817;28;20037;-82
2023/08/10 03:52:18;;;;;;;0.28;0.28;;;;;;;;;;5033108;28;20025;-82
2023/08/10 03:54:44;;;;;;;0.10;0.10;;;;;;;;;;5033297;28;20536;-82
2023/08/10 03:57:10;;;;;;;0.20;0.20;;;;;;;;;;5032723;28;20037;-82
2023/08/10 03:59:36;;;;;;;0.15;0.15;;;;;;;;;;5033416;28;20593;-82
2023/08/10 04:02:02;;;;;;;0.28;0.28;;;;;;;;;;5032902;28;20112;-82
2023/08/10 04:04:29;;;;;;;0.10;0.10;;;;;;;;;;5048175;28;20030;-82
2023/08/10 04:06:55;;;;;;;0.20;0.20;;;;;;;;;;5049844;28;20025;-82
2023/08/10 04:09:21;;;;;;;0.10;0.10;;;;;;;;;;5052602;28;20112;-82
2023/08/10 04:11:47;;;;;;;0.28;0.28;;;;;;;;;;5053124;28;20028;-82
2023/08/10 04:14:13;;;;;;;0.85;0.20;;;;;;;;;;5052678;28;20078;-82
2023/08/10 04:16:39;;;;;;;0.20;0.20;;;;;;;;;;5052389;28;20103;-82
2023/08/10 04:19:05;;;;;;;0.20;0.20;;;;;;;;;;5052117;28;20052;-81
2023/08/10 04:21:31;;;;;;;0.30;0.30;;;;;;;;;;5051481;28;20068;-82
2023/08/10 04:23:57;;;;;;;0.00;0.00;;;;;;;;;;5052665;28;20477;-82
2023/08/10 04:26:23;;;;;;;0.10;0.10;;;;;;;;;;5052369;28;20067;-82
2023/08/10 04:28:50;;;;;;;0.10;0.10;;;;;;;;;;5052180;28;20474;-82
2023/08/10 04:31:16;;;;;;;0.10;0.10;;;;;;;;;;5052666;28;20051;-82
2023/08/10 04:33:42;;;;;;;0.10;0.10;;;;;;;;;;5051894;28;20473;-82
2023/08/10 04:36:08;;;;;;;0.50;0.50;;;;;;;;;;5052220;28;20504;-82
2023/08/10 04:38:35;;;;;;;0.10;0.10;;;;;;;;;;5052011;28;20079;-82
2023/08/10 04:41:01;;;;;;;0.20;0.20;;;;;;;;;;5052158;28;20489;-82
2023/08/10 04:43:27;;;;;;;0.10;0.10;;;;;;;;;;5052516;28;20036;-82
2023/08/10 04:45:53;;;;;;;0.10;0.10;;;;;;;;;;5051936;28;20645;-82
2023/08/10 04:48:20;;;;;;;0.80;0.63;;;;;;;;;;5051836;28;20029;-82
2023/08/10 04:50:46;;;;;;;0.38;0.38;;;;;;;;;;5051995;28;20025;-82
2023/08/10 04:53:12;;;;;;;8.10;1.08;;;;;;;;;;5052201;28;20549;-82
2023/08/10 04:55:38;;;;;;;0.28;0.28;;;;;;;;;;5052042;28;20108;-82
2023/08/10 04:58:04;;;;;;;0.75;0.17;;;;;;;;;;5051926;28;20120;-86
2023/08/10 05:00:30;;;;;;;1.67;0.55;;;;;;;;;;5052232;28;20024;-85
2023/08/10 05:02:56;;;;;;;0.20;0.20;;;;;;;;;;5051958;28;20393;-85
2023/08/10 05:05:22;;;;;;;0.22;0.20;;;;;;;;;;5051827;28;20551;-84
2023/08/10 05:07:48;;;;;;;0.45;0.43;;;;;;;;;;5052246;28;20033;-85
2023/08/10 05:10:14;;;;;;;0.52;0.40;;;;;;;;;;5051874;28;20500;-85
2023/08/10 05:12:40;;;;;;;0.20;0.15;;;;;;;;;;5051927;28;20025;-84
2023/08/10 05:15:09;;;;;;;0.15;0.15;;;;;;;;;;5052310;28;20048;-85
2023/08/10 05:17:35;;;;;;;0.10;0.10;;;;;;;;;;5051468;28;20032;-84
2023/08/10 05:20:07;;;;;;;0.20;0.10;;;;;;;;;;5034913;28;20021;-84
2023/08/10 05:22:33;;;;;;;0.10;0.10;;;;;;;;;;5050642;28;20504;-84
2023/08/10 05:24:59;;;;;;;0.38;0.38;;;;;;;;;;5050918;28;20025;-85
2023/08/10 05:27:25;;;;;;;0.20;0.20;;;;;;;;;;5051052;28;20412;-85
2023/08/10 05:29:51;;;;;;;0.20;0.20;;;;;;;;;;5050961;28;20055;-85
2023/08/10 05:32:18;;;;;;;0.30;0.30;;;;;;;;;;5051575;28;20041;-85
2023/08/10 05:34:44;;;;;;;0.10;0.10;;;;;;;;;;5054817;28;20096;-85
2023/08/10 05:37:10;;;;;;;0.28;0.28;;;;;;;;;;5054402;28;20128;-85
2023/08/10 05:39:36;;;;;;;0.20;0.20;;;;;;;;;;5054810;28;20018;-85
2023/08/10 05:42:02;;;;;;;0.00;0.00;;;;;;;;;;5054740;28;20368;-85
2023/08/10 05:44:28;;;;;;;0.10;0.10;;;;;;;;;;5054512;28;20477;-85
2023/08/10 05:46:54;;;;;;;0.10;0.10;;;;;;;;;;5054846;28;20475;-86
2023/08/10 05:49:20;;;;;;;0.40;0.40;;;;;;;;;;5055617;28;20021;-85
2023/08/10 05:51:46;;;;;;;0.10;0.10;;;;;;;;;;5055257;28;20120;-83
2023/08/10 05:54:12;;;;;;;0.15;0.15;;;;;;;;;;5055172;28;20420;-83
2023/08/10 05:56:38;;;;;;;0.32;0.32;;;;;;;;;;5055058;28;20091;-82
2023/08/10 05:59:04;;;;;;;0.10;0.10;;;;;;;;;;5055214;28;20029;-83
2023/08/10 06:01:30;;;;;;;2.38;0.30;;;;;;;;;;5054833;28;20049;-83
2023/08/10 06:03:56;;;;;;;0.10;0.10;;;;;;;;;;5055261;28;20040;-83
2023/08/10 06:06:22;;;;;;;0.38;0.30;;;;;;;;;;5054508;28;20075;-83
2023/08/10 06:08:48;;;;;;;0.03;0.03;;;;;;;;;;5055632;28;20132;-83
2023/08/10 06:11:15;;;;;;;0.10;0.10;;;;;;;;;;5054921;28;20036;-83
2023/08/10 06:13:41;;;;;;;0.20;0.20;;;;;;;;;;5054084;28;20024;-83
2023/08/10 06:16:08;;;;;;;0.10;0.10;;;;;;;;;;5054439;28;20120;-83
2023/08/10 06:18:34;;;;;;;0.10;0.10;;;;;;;;;;5054606;28;20037;-83
2023/08/10 06:21:06;;;;;;;0.20;0.20;;;;;;;;;;5054447;28;20049;-83
2023/08/10 06:23:33;;;;;;;0.10;0.10;;;;;;;;;;5054644;28;20029;-84
2023/08/10 06:26:00;;;;;;;0.20;0.20;;;;;;;;;;5054665;28;20017;-83
2023/08/10 06:28:27;;;;;;;0.10;0.10;;;;;;;;;;5054634;28;20491;-83
2023/08/10 06:30:53;;;;;;;0.35;0.30;;;;;;;;;;5054245;28;20035;-84
2023/08/10 06:33:19;;;;;;;0.82;0.52;;;;;;;;;;5053750;28;20108;-83
2023/08/10 06:35:45;;;;;;;0.25;0.25;;;;;;;;;;5054047;28;20025;-83
2023/08/10 06:38:11;;;;;;;0.10;0.10;;;;;;;;;;5049395;28;20045;-83
2023/08/10 06:40:38;;;;;;;0.10;0.10;;;;;;;;;;5054604;28;20032;-83
2023/08/10 06:43:04;;;;;;;0.45;0.30;;;;;;;;;;5053777;28;20432;-83
2023/08/10 06:45:30;;;;;;;0.10;0.10;;;;;;;;;;5051226;28;20028;-83
2023/08/10 06:47:56;;;;;;;0.05;0.05;;;;;;;;;;5053215;28;20055;-83
2023/08/10 06:50:23;;;;;;;0.63;0.63;;;;;;;;;;5052990;28;20123;-83
2023/08/10 06:52:49;;;;;;;0.10;0.10;;;;;;;;;;5034063;28;20085;-83
2023/08/10 06:55:15;;;;;;;0.45;0.45;;;;;;;;;;5041060;28;20108;-83
2023/08/10 06:57:44;;;;;;;0.43;0.20;;;;;;;;;;5053843;28;20528;-83
2023/08/10 07:00:13;;;;;;;0.20;0.20;;;;;;;;;;5053034;28;20036;-82
2023/08/10 07:02:39;;;;;;;0.10;0.10;;;;;;;;;;5053388;28;20025;-85
2023/08/10 07:05:06;;;;;;;0.10;0.10;;;;;;;;;;5052119;28;20108;-89
2023/08/10 07:07:32;;;;;;;0.10;0.10;;;;;;;;;;5053469;28;20465;-83
2023/08/10 07:09:58;;;;;;;0.10;0.10;;;;;;;;;;5054151;28;20028;-83
2023/08/10 07:12:24;;;;;;;0.10;0.10;;;;;;;;;;5053192;28;20470;-84
2023/08/10 07:14:50;;;;;;;0.30;0.17;;;;;;;;;;5048535;28;20025;-88
2023/08/10 07:17:16;;;;;;;0.40;0.40;;;;;;;;;;5044894;28;20051;-84
2023/08/10 07:19:43;;;;;;;0.20;0.20;;;;;;;;;;5053473;28;20029;-84
2023/08/10 07:22:09;;;;;;;0.10;0.10;;;;;;;;;;5042781;28;20061;-83
2023/08/10 07:24:35;;;;;;;0.57;0.45;;;;;;;;;;5051041;28;20482;-84
2023/08/10 07:27:01;;;;;;;1.83;0.15;;;;;;;;;;5052980;28;20023;-81
2023/08/10 07:29:27;;;;;;;0.05;0.05;;;;;;;;;;5053420;28;20033;-81
2023/08/10 07:32:00;;;;;;;0.22;0.22;;;;;;;;;;5053293;28;20047;-85
2023/08/10 07:34:26;;;;;;;3.30;1.30;;;;;;;;;;5048407;28;20036;-83
2023/08/10 07:36:52;;;;;;;0.30;0.30;;;;;;;;;;5045185;28;20071;-84
2023/08/10 07:39:18;;;;;;;0.20;0.20;;;;;;;;;;5053037;28;20029;-83
2023/08/10 07:41:44;;;;;;;0.30;0.30;;;;;;;;;;5035699;28;20026;-84
2023/08/10 07:44:10;;;;;;;1.67;0.35;;;;;;;;;;5052112;28;20035;-84
2023/08/10 07:46:36;;;;;;;0.20;0.20;;;;;;;;;;5053339;28;20056;-84
2023/08/10 07:49:02;;;;;;;0.38;0.38;;;;;;;;;;5052940;28;20029;-84
2023/08/10 07:51:28;;;;;;;0.20;0.20;;;;;;;;;;5053411;28;20029;-83
2023/08/10 07:53:54;;;;;;;0.10;0.10;;;;;;;;;;5053024;28;20028;-87
2023/08/10 07:56:20;;;;;;;0.13;0.13;;;;;;;;;;5052620;28;20052;-84
2023/08/10 07:58:46;;;;;;;0.10;0.10;;;;;;;;;;5052828;28;20064;-83
2023/08/10 08:01:14;;;;;;;0.95;0.85;;;;;;;;;;5052688;28;20036;-83
2023/08/10 08:03:40;;;;;;;0.10;0.10;;;;;;;;;;5052864;28;20021;-82
2023/08/10 08:06:06;;;;;;;0.75;0.30;;;;;;;;;;5052440;28;20516;-83
2023/08/10 08:08:32;;;;;;;0.25;0.25;;;;;;;;;;5053247;28;20025;-82
2023/08/10 08:10:58;;;;;;;1.00;0.20;;;;;;;;;;5052265;28;20035;-82
2023/08/10 08:13:24;;;;;;;0.10;0.10;;;;;;;;;;5052109;28;20496;-83
2023/08/10 08:15:50;;;;;;;0.38;0.20;;;;;;;;;;5052365;28;20099;-81
2023/08/10 08:18:37;;;;;;;0.43;0.43;;;;;;;;;;5052517;28;20044;-82
2023/08/10 08:21:03;;;;;;;0.35;0.30;;;;;;;;;;5052369;28;20033;-82
2023/08/10 08:23:29;;;;;;;2.63;0.52;;;;;;;;;;5052382;28;20028;-82
2023/08/10 08:25:55;;;;;;;0.25;0.22;;;;;;;;;;5052427;28;20032;-83
2023/08/10 08:28:22;;;;;;;0.17;0.17;;;;;;;;;;5052410;28;20033;-82
2023/08/10 08:30:49;;;;;;;0.25;0.25;;;;;;;;;;5052273;28;20028;-82
2023/08/10 08:33:16;;;;;;;0.10;0.10;;;;;;;;;;5052233;28;20445;-83
2023/08/10 08:35:44;;;;;;;0.57;0.30;;;;;;;;;;5052619;28;20120;-82
2023/08/10 08:38:10;;;;;;;0.20;0.20;;;;;;;;;;5052181;28;20401;-83
2023/08/10 08:40:36;;;;;;;0.20;0.20;;;;;;;;;;5051874;28;20021;-82
2023/08/10 08:43:04;;;;;;;0.20;0.20;;;;;;;;;;5052181;28;20070;-82
2023/08/10 08:45:30;;;;;;;0.10;0.10;;;;;;;;;;5052116;28;20495;-82
2023/08/10 08:47:57;;;;;;;0.20;0.20;;;;;;;;;;5052117;28;20504;-84
2023/08/10 08:50:24;;;;;;;0.65;0.65;;;;;;;;;;5052538;28;20610;-82
2023/08/10 08:52:51;;;;;;;0.52;0.52;;;;;;;;;;5052130;28;20089;-83
2023/08/10 08:55:17;;;;;;;0.40;0.40;;;;;;;;;;5051705;28;20163;-83
2023/08/10 08:57:44;;;;;;;0.75;0.43;;;;;;;;;;5052257;28;20175;-83
2023/08/10 09:00:10;;;;;;;0.10;0.10;;;;;;;;;;5051943;28;20021;-83
2023/08/10 09:02:36;;;;;;;0.10;0.10;;;;;;;;;;5051925;28;20535;-83
2023/08/10 09:05:03;;;;;;;0.30;0.30;;;;;;;;;;5051773;28;20569;-83
2023/08/10 09:07:29;;;;;;;0.10;0.10;;;;;;;;;;5053358;28;20056;-83
2023/08/10 09:09:56;;;;;;;0.30;0.30;;;;;;;;;;5055844;28;20028;-83
2023/08/10 09:12:35;;;;;;;0.10;0.10;;;;;;;;;;5056453;28;20444;-83
2023/08/10 09:15:02;;;;;;;0.13;0.13;;;;;;;;;;5056025;28;20139;-83
2023/08/10 09:17:29;;;;;;;0.15;0.15;;;;;;;;;;5055893;28;20409;-83
2023/08/10 09:19:55;;;;;;;0.25;0.25;;;;;;;;;;5056179;28;20031;-84
2023/08/10 09:22:47;;;;;;;0.38;0.25;;;;;;;;;;5056070;28;20049;-83
2023/08/10 09:25:13;;;;;;;0.20;0.20;;;;;;;;;;5052720;28;20041;-84
2023/08/10 09:27:39;;;;;;;0.30;0.30;;;;;;;;;;5055776;28;20025;-84
2023/08/10 09:30:06;;;;;;;0.10;0.10;;;;;;;;;;5055592;28;20029;-84
2023/08/10 09:32:33;;;;;;;0.22;0.22;;;;;;;;;;5055503;28;20044;-84
2023/08/10 09:34:59;;;;;;;0.20;0.20;;;;;;;;;;5054629;28;20055;-84
2023/08/10 09:37:26;;;;;;;0.30;0.30;;;;;;;;;;5054407;28;20031;-84
2023/08/10 09:40:13;;;;;;;1.23;0.52;;;;;;;;;;5055141;28;20033;-85
2023/08/10 09:42:39;;;;;;;1.02;0.50;;;;;;;;;;5055780;28;20021;-82
2023/08/10 09:45:09;;;;;;;0.47;0.47;;;;;;;;;;5055026;28;20115;-79
2023/08/10 09:47:36;;;;;;;3.83;0.70;;;;;;;;;;5050202;28;20025;-80
2023/08/10 09:50:06;;;;;;;0.22;0.22;;;;;;;;;;5055011;28;20037;-80
2023/08/10 09:52:34;;;;;;;0.45;0.35;;;;;;;;;;5055277;28;20020;-80
2023/08/10 09:55:00;;;;;;;0.60;0.55;;;;;;;;;;5037848;28;20033;-80
2023/08/10 09:57:29;;;;;;;0.82;0.82;;;;;;;;;;5045345;28;20037;-80
2023/08/10 09:59:55;;;;;;;0.15;0.15;;;;;;;;;;5054461;28;20410;-80
2023/08/10 10:02:22;;;;;;;0.20;0.20;;;;;;;;;;5054527;28;20025;-80
2023/08/10 10:04:48;;;;;;;0.85;0.35;;;;;;;;;;5055381;28;20033;-80
2023/08/10 10:07:16;;;;;;;0.15;0.15;;;;;;;;;;5054284;28;20401;-80
2023/08/10 10:09:45;;;;;;;1.10;0.57;;;;;;;;;;5054937;28;20035;-81
2023/08/10 10:12:12;;;;;;;0.30;0.30;;;;;;;;;;5054674;28;20025;-80
2023/08/10 10:14:39;;;;;;;0.25;0.25;;;;;;;;;;5048284;28;20032;-81
2023/08/10 10:17:06;;;;;;;0.20;0.20;;;;;;;;;;5054563;28;20040;-81
2023/08/10 10:19:32;;;;;;;0.25;0.25;;;;;;;;;;5053242;28;20052;-81
2023/08/10 10:21:59;;;;;;;0.28;0.28;;;;;;;;;;5052568;28;20053;-81
2023/08/10 10:24:29;;;;;;;0.45;0.35;;;;;;;;;;5054466;28;20437;-81
2023/08/10 10:27:05;;;;;;;0.13;0.13;;;;;;;;;;5053066;28;20017;-81
2023/08/10 10:29:40;;;;;;;0.17;0.17;;;;;;;;;;5048702;28;20159;-82
2023/08/10 10:32:22;;;;;;;0.08;0.08;;;;;;;;;;5053261;28;20040;-81
2023/08/10 10:34:52;;;;;;;0.15;0.15;;;;;;;;;;5049539;28;20033;-81
2023/08/10 10:37:27;;;;;;;0.10;0.10;;;;;;;;;;5052572;28;20098;-81
2023/08/10 10:39:53;;;;;;;0.10;0.10;;;;;;;;;;5054309;28;20029;-81
2023/08/10 10:42:20;;;;;;;0.17;0.17;;;;;;;;;;5054438;28;20043;-81
2023/08/10 10:45:03;;;;;;;0.17;0.10;;;;;;;;;;5054389;28;20096;-81
2023/08/10 10:47:39;;;;;;;0.00;0.00;;;;;;;;;;5049634;28;20108;-81
2023/08/10 10:50:15;;;;;;;0.15;0.15;;;;;;;;;;5053808;28;20025;-81
2023/08/10 10:52:41;;;;;;;0.32;0.32;;;;;;;;;;5054155;28;20024;-81
2023/08/10 10:55:09;;;;;;;0.00;0.00;;;;;;;;;;5053442;28;20545;-81
2023/08/10 10:57:38;;;;;;;0.00;0.00;;;;;;;;;;5053686;28;20037;-82
2023/08/10 11:00:05;;;;;;;0.00;0.00;;;;;;;;;;5054458;28;20028;-81
2023/08/10 11:02:32;;;;;;;0.20;0.20;;;;;;;;;;5053533;28;20493;-81
2023/08/10 11:04:59;;;;;;;1.17;0.35;;;;;;;;;;5048911;28;20028;-81
2023/08/10 11:07:25;;;;;;;0.20;0.20;;;;;;;;;;5053233;28;20064;-81
2023/08/10 11:09:51;;;;;;;0.28;0.28;;;;;;;;;;5036591;28;20432;-81
2023/08/10 11:12:18;;;;;;;0.20;0.20;;;;;;;;;;5037180;28;20028;-82
2023/08/10 11:14:44;;;;;;;0.38;0.32;;;;;;;;;;5054014;28;20036;-81
2023/08/10 11:17:10;;;;;;;0.40;0.30;;;;;;;;;;5053508;28;20112;-82
2023/08/10 11:19:36;;;;;;;1.20;1.10;;;;;;;;;;5052953;28;20446;-81
2023/08/10 11:22:02;;;;;;;0.88;0.80;;;;;;;;;;5043754;28;20127;-81
2023/08/10 11:24:28;;;;;;;0.15;0.15;;;;;;;;;;5051811;28;20112;-82
2023/08/10 11:26:55;;;;;;;0.93;0.68;;;;;;;;;;5049984;28;20017;-82
2023/08/10 11:29:21;;;;;;;1.10;0.73;;;;;;;;;;5043357;28;20033;-81
2023/08/10 11:31:48;;;;;;;0.08;0.08;;;;;;;;;;5043895;28;20028;-81
2023/08/10 11:34:21;;;;;;;0.85;0.55;;;;;;;;;;5053043;28;20033;-80
2023/08/10 11:36:47;;;;;;;0.60;0.40;;;;;;;;;;5052043;28;20080;-81
2023/08/10 11:39:14;;;;;;;1.13;1.10;;;;;;;;;;5033414;28;20032;-81
2023/08/10 11:41:43;;;;;;;0.80;0.68;;;;;;;;;;5040294;28;20021;-81
2023/08/10 11:44:09;;;;;;;0.98;0.68;;;;;;;;;;5051963;28;20025;-80
2023/08/10 11:46:35;;;;;;;0.63;0.63;;;;;;;;;;5041270;28;20025;-81
2023/08/10 11:49:02;;;;;;;0.22;0.22;;;;;;;;;;5033196;28;20022;-81
2023/08/10 11:51:34;;;;;;;0.98;0.98;;;;;;;;;;5042462;28;20095;-80
2023/08/10 11:54:09;;;;;;;0.85;0.82;;;;;;;;;;5032891;28;20164;-80
2023/08/10 11:56:44;;;;;;;0.43;0.40;;;;;;;;;;5032823;28;20087;-81
2023/08/10 11:59:14;;;;;;;4.10;1.00;;;;;;;;;;5033336;28;20108;-81
2023/08/10 12:01:53;;;;;;;0.35;0.35;;;;;;;;;;5034938;28;20034;-81
2023/08/10 12:04:19;;;;;;;1.02;0.45;;;;;;;;;;5052509;28;20048;-80
2023/08/10 12:06:45;;;;;;;0.85;0.52;;;;;;;;;;5052408;28;20565;-80
2023/08/10 12:09:12;;;;;;;0.40;0.40;;;;;;;;;;5052526;28;20024;-80
2023/08/10 12:11:39;;;;;;;0.20;0.20;;;;;;;;;;5053046;28;20039;-81
2023/08/10 12:14:06;;;;;;;0.13;0.13;;;;;;;;;;5052383;28;20422;-80
2023/08/10 12:16:32;;;;;;;0.28;0.28;;;;;;;;;;5048047;28;20104;-81
2023/08/10 12:18:58;;;;;;;0.10;0.10;;;;;;;;;;5052152;28;20560;-81
2023/08/10 12:21:25;;;;;;;0.35;0.35;;;;;;;;;;5052146;28;20049;-81
2023/08/10 12:23:50;;;;;;;1.55;0.60;;;;;;;;;;5042028;28;20020;-80
2023/08/10 12:26:16;;;;;;;0.80;0.77;;;;;;;;;;5053008;28;20025;-81
2023/08/10 12:28:43;;;;;;;1.20;1.10;;;;;;;;;;5057482;28;20485;-81
2023/08/10 12:31:09;;;;;;;0.40;0.30;;;;;;;;;;5052748;28;20035;-80
2023/08/10 12:33:35;;;;;;;0.35;0.30;;;;;;;;;;5052079;28;20048;-81
2023/08/10 12:36:02;;;;;;;0.28;0.28;;;;;;;;;;5036555;28;20386;-80
2023/08/10 12:38:28;;;;;;;0.40;0.20;;;;;;;;;;5044851;28;20047;-80
2023/08/10 12:40:55;;;;;;;0.20;0.20;;;;;;;;;;5052126;28;20016;-80
2023/08/10 12:43:21;;;;;;;0.25;0.25;;;;;;;;;;5051333;28;20064;-79
2023/08/10 12:45:47;;;;;;;0.32;0.22;;;;;;;;;;5052162;28;20013;-81
2023/08/10 12:48:13;;;;;;;0.32;0.20;;;;;;;;;;5036154;28;20569;-81
2023/08/10 12:50:39;;;;;;;0.00;0.00;;;;;;;;;;5039122;28;20113;-81
2023/08/10 12:53:05;;;;;;;0.28;0.10;;;;;;;;;;5051878;28;20101;-81
2023/08/10 12:55:32;;;;;;;1.25;0.73;;;;;;;;;;5051472;28;20033;-81
2023/08/10 12:57:58;;;;;;;0.30;0.30;;;;;;;;;;5051638;28;20401;-81
2023/08/10 13:00:24;;;;;;;0.30;0.30;;;;;;;;;;5051498;28;20025;-81
2023/08/10 13:02:50;;;;;;;0.57;0.38;;;;;;;;;;5051694;28;20554;-80
2023/08/10 13:05:17;;;;;;;0.25;0.20;;;;;;;;;;5051363;28;20167;-81
2023/08/10 13:07:44;;;;;;;0.13;0.13;;;;;;;;;;5051734;28;20106;-81
2023/08/10 13:10:10;;;;;;;0.10;0.10;;;;;;;;;;5050236;28;20020;-81
2023/08/10 13:12:36;;;;;;;2.85;0.20;;;;;;;;;;5051923;28;20040;-80
2023/08/10 13:15:04;;;;;;;0.17;0.17;;;;;;;;;;5051169;28;20385;-81
2023/08/10 13:17:30;;;;;;;0.20;0.20;;;;;;;;;;5052232;28;20041;-81
2023/08/10 13:20:00;;;;;;;0.20;0.20;;;;;;;;;;5051354;28;20040;-81
2023/08/10 13:22:32;;;;;;;0.10;0.10;;;;;;;;;;5051708;28;20044;-80
2023/08/10 13:24:59;;;;;;;0.10;0.10;;;;;;;;;;5046192;28;20087;-81
2023/08/10 13:27:25;;;;;;;0.32;0.30;;;;;;;;;;5051473;28;20031;-80
2023/08/10 13:29:52;;;;;;;0.13;0.13;;;;;;;;;;5043084;28;20027;-81
2023/08/10 13:32:22;;;;;;;0.05;0.05;;;;;;;;;;5050095;28;20060;-81
2023/08/10 13:34:48;;;;;;;0.08;0.08;;;;;;;;;;5044510;28;20029;-81
2023/08/10 13:37:15;;;;;;;0.30;0.30;;;;;;;;;;5031553;28;20472;-81
2023/08/10 13:39:41;;;;;;;0.20;0.20;;;;;;;;;;5045553;28;20033;-81
2023/08/10 13:42:07;;;;;;;0.32;0.32;;;;;;;;;;5051682;28;20385;-81
2023/08/10 13:44:33;;;;;;;0.10;0.10;;;;;;;;;;5051345;28;20032;-81
2023/08/10 13:47:00;;;;;;;0.10;0.10;;;;;;;;;;5051667;28;20033;-81
2023/08/10 13:49:26;;;;;;;0.08;0.08;;;;;;;;;;5051449;28;20405;-81
2023/08/10 13:51:53;;;;;;;0.20;0.20;;;;;;;;;;5037352;28;20078;-81
2023/08/10 13:54:19;;;;;;;0.30;0.22;;;;;;;;;;5037191;28;20382;-81
2023/08/10 13:56:57;;;;;;;0.08;0.08;;;;;;;;;;5055125;28;20035;-81
2023/08/10 13:59:24;;;;;;;0.00;0.00;;;;;;;;;;5053486;28;20033;-81
2023/08/10 14:01:50;;;;;;;0.25;0.25;;;;;;;;;;5053575;28;20489;-81
2023/08/10 14:04:16;;;;;;;0.20;0.20;;;;;;;;;;5055195;28;20021;-81
2023/08/10 14:06:42;;;;;;;0.10;0.10;;;;;;;;;;5053715;28;20401;-81
2023/08/10 14:09:08;;;;;;;0.10;0.10;;;;;;;;;;5040106;28;20030;-81
2023/08/10 14:11:34;;;;;;;0.00;0.00;;;;;;;;;;5038292;28;20028;-81
2023/08/10 14:14:00;;;;;;;0.15;0.15;;;;;;;;;;5053393;28;20047;-81
2023/08/10 14:16:26;;;;;;;0.32;0.32;;;;;;;;;;5034794;28;20108;-81
2023/08/10 14:18:53;;;;;;;0.20;0.20;;;;;;;;;;5050354;28;20033;-81
2023/08/10 14:21:20;;;;;;;0.20;0.20;;;;;;;;;;5054368;28;20505;-80
2023/08/10 14:23:46;;;;;;;0.00;0.00;;;;;;;;;;5054610;28;20029;-85
2023/08/10 14:26:12;;;;;;;0.10;0.10;;;;;;;;;;5055084;28;20033;-81
2023/08/10 14:28:38;;;;;;;0.10;0.05;;;;;;;;;;5054229;28;20526;-81
2023/08/10 14:31:04;;;;;;;0.20;0.20;;;;;;;;;;5054546;28;20025;-80
2023/08/10 14:33:30;;;;;;;0.20;0.20;;;;;;;;;;5054459;28;20385;-79
2023/08/10 14:35:56;;;;;;;0.00;0.00;;;;;;;;;;5054339;28;20024;-79
2023/08/10 14:38:22;;;;;;;0.20;0.20;;;;;;;;;;5054266;28;20040;-79
2023/08/10 14:40:49;;;;;;;0.80;0.40;;;;;;;;;;5054275;28;20496;-80
2023/08/10 14:43:15;;;;;;;0.55;0.17;;;;;;;;;;5053954;28;20103;-80